Monterey, Indiana
Current Conditions -  °F | °C
As of 4:55 AM on Friday 31 Oct 2014 (Local Time) from KOXI Reporting Station
Overcast Overcast  
Wind Chill: 39°   Ceiling: 2900
Heat Index: 43°   Visibility: 4mi
Dew Point: 39°   Wind: 7mph
Humidity: 85%   Direction: 300°WNW
Pressure: 29.98"   Gusts: NA
Location:  41.16°N, 86.48°W
Report Text: KOXI 310955Z AUTO 30006KT 4SM SCT016 BKN029 OVC035 06/04 A2998 RMK AO1 T00610038
Loading
Personal Weather Stations






























Interactive Weather Map New forecast layout! Learn more

10-Day Weather Forecast

Advertisements
Track Severe Weather on mobile